Weather at Lyon Saint-Exupéry Airport

Public forecast

Using degrees Celsius for public forecast. Weather courtesy of forecast.io.

Current aviation weather report (METAR) for Lyon Saint-Exupéry Airport

2024/05/28 03:30 (retrieved 17 minutes ago)

LFLL 280330Z 00000KT 8000 2000S R35L/1000U MIFG FEW001 12/11 Q1022 NOSIG

Closest aviation forecast (TAF) to Lyon Saint-Exupéry Airport

Forecast is more than 6 hours old.

Closest forecast is Payerne Air Base, 101.5 nm (187.9 km) NE.

2024/05/27 17:00 (retrieved 11 hours ago)

TAF LSMP 271625Z 2717/2823 VRB02KT 9999 FEW050 PROB40 TEMPO 2717/2720 SHRA SCT035TCU